createdAt,value
2022-10-29T00:02:04.471Z,74.25
2022-10-29T00:04:36.845Z,74.49
2022-10-29T00:07:09.128Z,74.36
2022-10-29T00:09:41.478Z,74.15
2022-10-29T00:12:13.799Z,74.60
2022-10-29T00:14:46.098Z,75.24
2022-10-29T00:17:19.117Z,75.11
2022-10-29T00:19:51.448Z,75.03
2022-10-29T00:22:23.793Z,74.88
2022-10-29T00:24:56.079Z,74.86
2022-10-29T00:27:28.361Z,75.14
2022-10-29T00:30:00.819Z,75.65
2022-10-29T00:32:33.796Z,75.42
2022-10-29T00:35:06.394Z,75.37
2022-10-29T00:37:40.181Z,75.37
2022-10-29T00:40:12.832Z,75.65
2022-10-29T00:42:45.116Z,75.71
2022-10-29T00:45:20.184Z,75.97
2022-10-29T00:47:53.641Z,76.51
2022-10-29T00:50:26.098Z,76.79
2022-10-29T00:52:58.970Z,77.30
2022-10-29T00:55:31.889Z,77.03
2022-10-29T00:58:04.565Z,76.62
2022-10-29T01:00:38.105Z,76.96
2022-10-29T01:03:11.161Z,77.17
2022-10-29T01:05:45.286Z,77.06
2022-10-29T01:08:18.310Z,77.15
2022-10-29T01:11:02.698Z,77.65
2022-10-29T01:13:55.130Z,77.45
2022-10-29T01:16:35.895Z,76.69
2022-10-29T01:19:19.278Z,77.33
2022-10-29T01:21:58.767Z,77.71
2022-10-29T01:25:04.600Z,78.20
2022-10-29T01:27:57.257Z,78.45
2022-10-29T01:31:05.318Z,78.42
2022-10-29T01:33:43.713Z,78.42
2022-10-29T01:36:23.948Z,78.68
2022-10-29T01:39:04.863Z,79.01
2022-10-29T01:41:46.789Z,79.02
2022-10-29T01:44:30.285Z,78.32
2022-10-29T01:47:05.295Z,78.33
2022-10-29T01:49:40.207Z,78.73
2022-10-29T01:52:15.087Z,79.02
2022-10-29T01:54:48.072Z,79.09
2022-10-29T01:57:28.565Z,79.04
2022-10-29T02:00:04.479Z,78.89
2022-10-29T02:03:06.875Z,78.25
2022-10-29T02:05:50.809Z,79.04
2022-10-29T02:08:35.415Z,79.33
2022-10-29T02:11:11.998Z,79.82
2022-10-29T02:13:50.146Z,79.59
2022-10-29T02:16:24.828Z,80.29
2022-10-29T02:18:58.021Z,81.01
2022-10-29T02:21:30.383Z,81.08
2022-10-29T02:24:02.721Z,80.97
2022-10-29T02:26:35.040Z,80.18
2022-10-29T02:29:07.345Z,80.51
2022-10-29T02:31:39.607Z,80.45
2022-10-29T02:34:12.915Z,80.09
2022-10-29T02:36:45.234Z,80.47
2022-10-29T02:39:17.522Z,80.65
2022-10-29T02:41:49.888Z,80.73
2022-10-29T02:44:22.187Z,80.19
2022-10-29T02:46:54.453Z,80.20
2022-10-29T02:49:27.668Z,80.47
2022-10-29T02:51:59.949Z,80.62
2022-10-29T02:54:32.297Z,80.98
2022-10-29T02:57:04.705Z,81.31
2022-10-29T02:59:37.053Z,81.38
2022-10-29T03:02:09.473Z,81.25
2022-10-29T03:04:44.052Z,81.14
2022-10-29T03:07:16.353Z,81.77
2022-10-29T03:09:48.636Z,80.88
2022-10-29T03:12:20.989Z,80.74
2022-10-29T03:14:53.252Z,80.57
2022-10-29T03:17:25.654Z,80.41
2022-10-29T03:19:58.584Z,80.97
2022-10-29T03:22:30.880Z,80.77
2022-10-29T03:25:03.491Z,80.53
2022-10-29T03:27:40.681Z,81.18
2022-10-29T03:30:15.301Z,80.44
2022-10-29T03:32:47.946Z,81.79
2022-10-29T03:35:21.309Z,81.63
2022-10-29T03:37:53.668Z,81.54
2022-10-29T03:40:25.966Z,81.67
2022-10-29T03:42:58.558Z,81.06
2022-10-29T03:45:31.089Z,81.12
2022-10-29T03:48:04.314Z,81.09
2022-10-29T03:50:37.269Z,80.92
2022-10-29T03:53:10.380Z,80.61
2022-10-29T03:55:42.712Z,80.08
2022-10-29T03:58:15.053Z,80.34
2022-10-29T04:00:54.159Z,80.59
2022-10-29T04:03:28.092Z,80.08
2022-10-29T04:06:02.673Z,80.01
2022-10-29T04:08:35.002Z,80.56
2022-10-29T04:11:10.162Z,81.17
2022-10-29T04:13:42.483Z,81.18
2022-10-29T04:16:14.798Z,81.05
2022-10-29T04:18:47.312Z,81.70
2022-10-29T04:29:57.237Z,81.42
2022-10-29T04:32:29.579Z,80.90
2022-10-29T04:35:01.877Z,81.38
2022-10-29T04:37:34.844Z,80.89
2022-10-29T04:40:08.257Z,80.62
2022-10-29T04:42:40.718Z,80.80
2022-10-29T04:45:13.089Z,81.02
2022-10-29T04:47:45.750Z,81.28
2022-10-29T04:50:18.016Z,80.87
2022-10-29T04:52:51.087Z,80.47
2022-10-29T04:55:23.400Z,80.76
2022-10-29T04:57:56.320Z,81.04
2022-10-29T05:00:28.903Z,81.47
2022-10-29T05:03:01.220Z,81.26
2022-10-29T05:05:33.748Z,81.64
2022-10-29T05:08:06.885Z,81.93
2022-10-29T05:10:39.774Z,82.15
2022-10-29T05:13:12.852Z,82.48
2022-10-29T05:15:52.984Z,82.11
2022-10-29T05:18:26.105Z,82.85
2022-10-29T05:20:58.416Z,82.49
2022-10-29T05:23:31.460Z,81.90
2022-10-29T05:26:03.982Z,82.08
2022-10-29T05:28:36.263Z,82.03
2022-10-29T05:31:08.527Z,82.28
2022-10-29T05:33:40.832Z,82.16
2022-10-29T05:36:13.148Z,82.90
2022-10-29T05:38:46.127Z,82.41
2022-10-29T05:41:18.556Z,82.44
2022-10-29T05:43:50.902Z,83.39
2022-10-29T05:46:23.177Z,82.80
2022-10-29T05:48:55.584Z,81.85
2022-10-29T05:51:27.881Z,82.37
2022-10-29T05:54:00.956Z,82.85
2022-10-29T05:56:33.280Z,83.00
2022-10-29T05:59:05.576Z,83.32
2022-10-29T06:01:38.199Z,83.40
2022-10-29T06:04:10.597Z,84.21
2022-10-29T06:06:42.943Z,84.05
2022-10-29T06:09:16.031Z,84.22
2022-10-29T06:11:48.337Z,83.75
2022-10-29T06:14:20.640Z,84.36
2022-10-29T06:16:52.935Z,84.24
2022-10-29T06:19:25.265Z,83.97
2022-10-29T06:22:00.314Z,84.49
2022-10-29T06:24:33.725Z,84.43
2022-10-29T06:27:06.004Z,84.49
2022-10-29T06:29:38.337Z,84.60
2022-10-29T06:32:10.651Z,84.83
2022-10-29T06:34:43.091Z,84.83
2022-10-29T06:37:15.395Z,84.43
2022-10-29T06:39:48.376Z,84.87
2022-10-29T06:42:20.715Z,84.77
2022-10-29T06:44:53.062Z,85.17
2022-10-29T06:47:25.399Z,84.01
2022-10-29T06:49:57.775Z,82.47
2022-10-29T06:52:30.479Z,81.90
2022-10-29T06:55:04.871Z,80.34
2022-10-29T06:57:37.232Z,79.10
2022-10-29T07:00:10.517Z,77.45
2022-10-29T07:02:43.126Z,76.44
2022-10-29T07:05:15.671Z,76.13
2022-10-29T07:07:48.267Z,75.89
2022-10-29T07:10:21.222Z,75.51
2022-10-29T07:12:53.566Z,74.55
2022-10-29T07:15:27.807Z,75.24
2022-10-29T07:18:04.353Z,71.99
2022-10-29T07:20:39.517Z,72.81
2022-10-29T07:23:13.035Z,72.39
2022-10-29T07:25:46.184Z,71.61
2022-10-29T07:28:20.946Z,71.05
2022-10-29T07:30:58.847Z,71.04
2022-10-29T07:33:31.313Z,70.69
2022-10-29T07:36:04.105Z,69.76
2022-10-29T07:38:36.432Z,68.37
2022-10-29T07:41:09.471Z,68.51
2022-10-29T07:43:41.814Z,67.12
2022-10-29T07:46:14.173Z,68.07
2022-10-29T07:48:46.679Z,70.38
2022-10-29T07:51:19.431Z,71.03
2022-10-29T07:53:51.764Z,69.96
2022-10-29T07:56:24.736Z,69.88
2022-10-29T07:58:57.029Z,70.03
2022-10-29T08:01:29.438Z,68.55
2022-10-29T08:04:02.049Z,68.20
2022-10-29T08:06:34.365Z,67.43
2022-10-29T08:09:06.778Z,66.55
2022-10-29T08:11:39.803Z,66.02
2022-10-29T08:14:12.465Z,65.74
2022-10-29T08:16:44.829Z,66.12
2022-10-29T08:19:17.126Z,65.21
2022-10-29T08:21:49.503Z,64.87
2022-10-29T08:24:22.198Z,64.39
2022-10-29T08:26:55.250Z,63.68
2022-10-29T08:29:27.573Z,63.48
2022-10-29T08:31:59.933Z,62.24
2022-10-29T08:34:32.281Z,62.06
2022-10-29T08:37:04.601Z,61.05
2022-10-29T08:39:36.912Z,60.47
2022-10-29T08:42:23.334Z,59.79
2022-10-29T08:45:19.821Z,59.68
2022-10-29T08:48:11.114Z,58.86
2022-10-29T08:50:46.327Z,58.44
2022-10-29T08:53:24.043Z,59.16
2022-10-29T08:55:58.516Z,59.16
2022-10-29T08:58:37.988Z,56.74
2022-10-29T09:01:12.040Z,56.60
2022-10-29T09:03:44.590Z,57.05
2022-10-29T09:06:24.158Z,56.09
2022-10-29T09:09:11.850Z,55.92
2022-10-29T09:12:06.917Z,55.21
2022-10-29T09:14:52.657Z,54.71
2022-10-29T09:17:35.068Z,55.23
2022-10-29T09:20:22.491Z,54.44
2022-10-29T09:23:05.406Z,54.43
2022-10-29T09:25:46.808Z,54.43
2022-10-29T09:28:31.157Z,53.93
2022-10-29T09:31:16.353Z,54.10
2022-10-29T09:33:54.309Z,53.13
2022-10-29T09:36:30.816Z,52.08
2022-10-29T09:39:10.231Z,51.86
2022-10-29T09:41:44.713Z,52.62
2022-10-29T09:44:23.063Z,51.84
2022-10-29T09:47:11.898Z,51.72
2022-10-29T09:50:05.052Z,51.85
2022-10-29T09:52:43.536Z,52.36
2022-10-29T09:55:20.631Z,51.87
2022-10-29T09:57:55.904Z,52.68
2022-10-29T10:00:30.876Z,51.31
2022-10-29T10:03:12.097Z,50.93
2022-10-29T10:05:59.972Z,50.99
2022-10-29T10:08:34.232Z,50.14
2022-10-29T10:11:07.466Z,51.05
2022-10-29T10:13:52.552Z,49.94
2022-10-29T10:16:27.688Z,50.63
2022-10-29T10:19:00.765Z,49.06
2022-10-29T10:21:33.417Z,49.88
2022-10-29T10:24:28.989Z,49.51
2022-10-29T10:27:01.681Z,49.42
2022-10-29T10:29:34.035Z,48.64
2022-10-29T10:32:16.034Z,48.90
2022-10-29T10:34:49.069Z,48.42
2022-10-29T10:37:22.533Z,47.82
2022-10-29T10:40:01.172Z,46.95
2022-10-29T10:42:38.768Z,47.68
2022-10-29T10:45:15.378Z,47.37
2022-10-29T10:47:53.267Z,47.94
2022-10-29T10:50:29.650Z,46.64
2022-10-29T10:53:04.993Z,45.71
2022-10-29T10:55:38.229Z,46.08
2022-10-29T10:58:15.988Z,45.61
2022-10-29T11:00:53.449Z,44.64
2022-10-29T11:03:34.225Z,45.66
2022-10-29T11:06:11.730Z,45.16
2022-10-29T11:08:49.597Z,45.12
2022-10-29T11:11:27.805Z,43.96
2022-10-29T11:14:05.206Z,44.15
2022-10-29T11:16:43.453Z,44.66
2022-10-29T11:19:24.472Z,44.10
2022-10-29T11:22:06.270Z,44.08
2022-10-29T11:24:46.951Z,43.14
2022-10-29T11:27:29.635Z,43.92
2022-10-29T11:30:05.028Z,43.42
2022-10-29T11:32:57.090Z,42.66
2022-10-29T11:35:40.444Z,43.24
2022-10-29T11:38:18.711Z,42.40
2022-10-29T11:40:57.680Z,42.81
2022-10-29T11:43:30.973Z,42.60
2022-10-29T11:46:13.072Z,41.99
2022-10-29T11:48:56.813Z,41.61
2022-10-29T11:51:38.677Z,41.09
2022-10-29T11:54:24.904Z,40.91
2022-10-29T11:57:01.657Z,40.49
2022-10-29T11:59:45.399Z,40.16
2022-10-29T12:02:33.965Z,40.75
2022-10-29T12:05:17.074Z,41.27
2022-10-29T12:08:07.775Z,40.82
2022-10-29T12:10:49.873Z,40.03
2022-10-29T12:13:35.126Z,40.57
2022-10-29T12:16:17.749Z,39.66
2022-10-29T12:18:56.907Z,39.48
2022-10-29T12:21:38.417Z,39.64
2022-10-29T12:24:33.945Z,39.97
2022-10-29T12:27:15.021Z,39.69
2022-10-29T12:29:58.209Z,39.06
2022-10-29T12:32:37.465Z,38.44
2022-10-29T12:35:15.637Z,38.37
2022-10-29T12:38:05.299Z,38.82
2022-10-29T12:40:40.793Z,37.77
2022-10-29T12:43:19.771Z,37.49
2022-10-29T12:46:19.044Z,36.57
2022-10-29T12:49:05.768Z,37.01
2022-10-29T12:51:46.455Z,36.05
2022-10-29T12:54:30.665Z,36.68
2022-10-29T12:57:18.110Z,36.25
2022-10-29T12:59:51.223Z,34.70
2022-10-29T13:02:29.753Z,34.53
2022-10-29T13:05:36.113Z,34.73
2022-10-29T13:08:34.882Z,34.26
2022-10-29T13:11:22.048Z,34.67
2022-10-29T13:14:00.024Z,34.27
2022-10-29T13:16:33.166Z,33.61
2022-10-29T13:19:18.509Z,33.56
2022-10-29T13:21:59.304Z,33.88
2022-10-29T13:24:32.026Z,32.79
2022-10-29T13:27:20.944Z,32.79
2022-10-29T13:30:16.845Z,33.27
2022-10-29T13:32:49.872Z,33.72
2022-10-29T13:35:41.437Z,33.14
2022-10-29T13:38:18.144Z,33.08
2022-10-29T13:41:11.185Z,32.66
2022-10-29T13:43:53.749Z,33.68
2022-10-29T13:46:32.981Z,34.14
2022-10-29T13:49:12.565Z,33.79
2022-10-29T13:51:53.041Z,33.98
2022-10-29T13:54:31.760Z,34.69
2022-10-29T13:57:08.424Z,34.74
2022-10-29T13:59:43.099Z,34.64
2022-10-29T14:02:29.738Z,34.23
2022-10-29T14:05:12.886Z,33.12
2022-10-29T14:07:52.477Z,33.85
2022-10-29T14:13:23.693Z,33.31
2022-10-29T14:16:01.638Z,33.18
2022-10-29T14:18:37.612Z,33.18
2022-10-29T14:21:16.073Z,33.46
2022-10-29T14:23:56.054Z,34.05
2022-10-29T14:26:30.455Z,34.44
2022-10-29T14:29:13.177Z,34.73
2022-10-29T14:31:45.573Z,34.34
2022-10-29T14:34:27.356Z,34.63
2022-10-29T14:37:02.882Z,34.33
2022-10-29T14:39:48.814Z,35.08
2022-10-29T14:42:32.001Z,34.25
2022-10-29T14:45:07.066Z,34.79
2022-10-29T14:47:39.453Z,34.89
2022-10-29T14:50:17.093Z,34.69
2022-10-29T14:52:53.904Z,35.06
2022-10-29T14:55:30.483Z,34.69
2022-10-29T14:58:07.306Z,35.25
2022-10-29T15:00:53.574Z,35.10
2022-10-29T15:03:29.087Z,35.02
2022-10-29T15:06:14.204Z,35.45
2022-10-29T15:08:55.518Z,35.35
2022-10-29T15:11:34.296Z,35.90
2022-10-29T15:14:25.320Z,36.36
2022-10-29T15:16:58.764Z,36.41
2022-10-29T15:19:31.198Z,36.43
2022-10-29T15:22:08.096Z,36.30
2022-10-29T15:24:45.488Z,36.74
2022-10-29T15:27:17.973Z,37.16
2022-10-29T15:29:53.272Z,37.40
2022-10-29T15:32:30.555Z,38.16
2022-10-29T15:35:10.065Z,38.51
2022-10-29T15:37:45.072Z,38.75
2022-10-29T15:40:21.938Z,39.51
2022-10-29T15:42:55.446Z,40.07
2022-10-29T15:45:28.377Z,40.31
2022-10-29T15:48:29.153Z,41.01
2022-10-29T15:51:01.661Z,41.18
2022-10-29T15:53:35.158Z,42.06
2022-10-29T15:56:12.030Z,42.40
2022-10-29T15:58:44.430Z,43.08
2022-10-29T16:01:17.006Z,42.99
2022-10-29T16:03:49.837Z,43.46
2022-10-29T16:06:22.345Z,43.54
2022-10-29T16:08:57.641Z,44.12
2022-10-29T16:11:30.773Z,44.40
2022-10-29T16:14:03.093Z,44.84
2022-10-29T16:16:37.646Z,45.33
2022-10-29T16:19:10.031Z,45.87
2022-10-29T16:21:42.469Z,46.54
2022-10-29T16:24:15.258Z,46.76
2022-10-29T16:26:48.282Z,47.35
2022-10-29T16:29:20.613Z,47.49
2022-10-29T16:31:53.008Z,47.88
2022-10-29T16:34:25.332Z,48.27
2022-10-29T16:36:57.664Z,48.21
2022-10-29T16:39:29.979Z,49.29
2022-10-29T16:42:03.010Z,49.82
2022-10-29T16:44:35.396Z,49.60
2022-10-29T16:47:07.750Z,50.32
2022-10-29T16:49:40.074Z,50.49
2022-10-29T16:52:15.103Z,51.00
2022-10-29T16:54:51.228Z,51.19
2022-10-29T16:57:24.378Z,51.58
2022-10-29T16:59:56.742Z,51.91
2022-10-29T17:02:29.119Z,52.72
2022-10-29T17:05:01.456Z,52.93
2022-10-29T17:07:33.785Z,54.39
2022-10-29T17:10:07.373Z,54.25
2022-10-29T17:12:40.402Z,54.64
2022-10-29T17:15:12.698Z,54.63
2022-10-29T17:17:46.468Z,55.22
2022-10-29T17:20:19.283Z,55.64
2022-10-29T17:22:52.500Z,55.80
2022-10-29T17:25:24.881Z,55.75
2022-10-29T17:27:58.235Z,56.14
2022-10-29T17:30:30.967Z,55.95
2022-10-29T17:33:03.348Z,56.24
2022-10-29T17:35:35.686Z,56.83
2022-10-29T17:38:08.458Z,57.70
2022-10-29T17:40:42.875Z,57.82
2022-10-29T17:43:15.903Z,58.03
2022-10-29T17:45:49.910Z,58.10
2022-10-29T17:48:24.922Z,58.91
2022-10-29T17:50:59.408Z,58.88
2022-10-29T17:53:31.774Z,59.36
2022-10-29T17:56:04.476Z,59.48
2022-10-29T17:58:38.628Z,59.46
2022-10-29T18:01:11.251Z,59.86
2022-10-29T18:03:43.961Z,59.77
2022-10-29T18:06:16.638Z,60.10
2022-10-29T18:08:48.988Z,60.29
2022-10-29T18:11:22.801Z,60.53
2022-10-29T18:13:57.401Z,60.94
2022-10-29T18:16:29.992Z,60.99
2022-10-29T18:19:03.426Z,61.01
2022-10-29T18:21:35.819Z,61.04
2022-10-29T18:24:08.880Z,61.29
2022-10-29T18:26:41.231Z,61.36
2022-10-29T18:29:14.231Z,61.64
2022-10-29T18:31:46.604Z,61.63
2022-10-29T18:34:18.934Z,62.04
2022-10-29T18:36:51.289Z,62.44
2022-10-29T18:39:23.636Z,63.06
2022-10-29T18:41:56.306Z,63.31
2022-10-29T18:44:29.599Z,63.38
2022-10-29T18:47:02.004Z,63.93
2022-10-29T18:49:34.381Z,63.79
2022-10-29T18:52:06.768Z,64.19
2022-10-29T18:54:40.143Z,64.31
2022-10-29T18:57:16.775Z,64.62
2022-10-29T18:59:52.304Z,65.31
2022-10-29T19:02:25.965Z,65.24
2022-10-29T19:04:58.344Z,65.70
2022-10-29T19:07:30.683Z,66.15
2022-10-29T19:10:03.031Z,65.58
2022-10-29T19:12:35.354Z,66.00
2022-10-29T19:15:09.373Z,66.12
2022-10-29T19:17:41.672Z,66.25
2022-10-29T19:20:14.220Z,66.33
2022-10-29T19:22:47.236Z,66.17
2022-10-29T19:25:19.573Z,66.52
2022-10-29T19:27:51.994Z,66.55
2022-10-29T19:30:25.834Z,66.46
2022-10-29T19:33:01.151Z,66.94
2022-10-29T19:35:37.301Z,66.93
2022-10-29T19:38:09.592Z,67.48
2022-10-29T19:40:41.999Z,67.16
2022-10-29T19:43:14.611Z,67.37
2022-10-29T19:45:47.610Z,67.37
2022-10-29T19:48:19.954Z,68.03
2022-10-29T19:50:54.329Z,68.18
2022-10-29T19:53:27.165Z,68.59
2022-10-29T19:55:59.497Z,68.29
2022-10-29T19:58:32.645Z,68.41
2022-10-29T20:01:07.576Z,68.90
2022-10-29T20:03:40.103Z,68.67
2022-10-29T20:06:13.214Z,68.61
2022-10-29T20:08:45.536Z,69.49
2022-10-29T20:11:17.915Z,69.63
2022-10-29T20:13:50.782Z,69.53
2022-10-29T20:16:23.871Z,69.52
2022-10-29T20:18:56.185Z,69.62
2022-10-29T20:21:28.588Z,69.68
2022-10-29T20:24:00.882Z,69.83
2022-10-29T20:26:33.256Z,70.13
2022-10-29T20:29:05.545Z,70.19
2022-10-29T20:31:41.251Z,70.31
2022-10-29T20:34:14.648Z,69.95
2022-10-29T20:36:47.109Z,69.86
2022-10-29T20:39:19.954Z,70.48
2022-10-29T20:41:52.296Z,70.60
2022-10-29T20:44:24.738Z,71.10
2022-10-29T20:46:57.745Z,71.36
2022-10-29T20:49:30.077Z,71.99
2022-10-29T20:52:02.788Z,72.05
2022-10-29T20:54:35.076Z,72.07
2022-10-29T20:57:07.405Z,72.10
2022-10-29T20:59:39.817Z,71.40
2022-10-29T21:02:12.931Z,71.73
2022-10-29T21:04:45.397Z,72.52
2022-10-29T21:07:18.103Z,72.28
2022-10-29T21:09:51.087Z,72.65
2022-10-29T21:12:23.527Z,72.61
2022-10-29T21:14:55.821Z,73.08
2022-10-29T21:17:28.786Z,72.99
2022-10-29T21:20:01.113Z,73.64
2022-10-29T21:22:33.550Z,74.62
2022-10-29T21:25:06.269Z,74.95
2022-10-29T21:27:38.598Z,74.33
2022-10-29T21:30:12.532Z,73.66
2022-10-29T21:32:45.529Z,74.39
2022-10-29T21:35:17.914Z,74.60
2022-10-29T21:37:50.230Z,75.14
2022-10-29T21:40:22.539Z,74.90
2022-10-29T21:42:55.278Z,75.38
2022-10-29T21:45:27.876Z,74.67
2022-10-29T21:48:00.981Z,75.44
2022-10-29T21:50:33.514Z,75.59
2022-10-29T21:53:07.209Z,75.49
2022-10-29T21:55:39.644Z,74.65
2022-10-29T21:58:11.961Z,75.23
2022-10-29T22:00:44.305Z,75.42
2022-10-29T22:03:17.368Z,76.21
2022-10-29T22:05:49.678Z,76.99
2022-10-29T22:10:56.846Z,75.41
2022-10-29T22:13:30.514Z,77.04
2022-10-29T22:16:04.351Z,76.66
2022-10-29T22:18:38.020Z,76.82
2022-10-29T22:21:12.721Z,76.27
2022-10-29T22:23:47.180Z,76.83
2022-10-29T22:26:21.858Z,77.28
2022-10-29T22:28:54.498Z,77.50
2022-10-29T22:31:26.826Z,76.94
2022-10-29T22:33:59.801Z,77.32
2022-10-29T22:36:32.141Z,76.80
2022-10-29T22:39:04.556Z,77.19
2022-10-29T22:41:36.869Z,77.09
2022-10-29T22:44:09.593Z,77.15
2022-10-29T22:46:41.970Z,77.84
2022-10-29T22:49:14.962Z,78.61
2022-10-29T22:51:47.256Z,78.96
2022-10-29T22:54:19.718Z,78.21
2022-10-29T22:56:52.130Z,77.94
2022-10-29T22:59:24.524Z,79.14
2022-10-29T23:01:56.925Z,78.38
2022-10-29T23:04:29.953Z,78.84
2022-10-29T23:07:02.366Z,78.90
2022-10-29T23:09:34.694Z,78.62
2022-10-29T23:12:07.118Z,79.30
2022-10-29T23:14:39.441Z,79.57
2022-10-29T23:17:11.763Z,79.63
2022-10-29T23:19:44.745Z,79.39
2022-10-29T23:22:17.909Z,79.64
2022-10-29T23:24:51.567Z,79.35
2022-10-29T23:27:23.952Z,80.03
2022-10-29T23:29:56.281Z,80.55
2022-10-29T23:32:28.619Z,80.70
2022-10-29T23:35:01.676Z,80.30
2022-10-29T23:37:33.980Z,80.50
2022-10-29T23:40:07.806Z,80.72
2022-10-29T23:42:40.130Z,80.96
2022-10-29T23:45:13.213Z,80.40
2022-10-29T23:47:46.025Z,80.47
2022-10-29T23:50:19.042Z,80.30
2022-10-29T23:52:51.356Z,80.27
2022-10-29T23:55:23.785Z,81.23
2022-10-29T23:57:56.138Z,80.94
